windsock image

Welcome to Bigfield Strip.

anemometer image
     

 Help for dials.  
 
Local Met:

Wind:   
10 Min average:  
89 ° / 5.3 kts (5.2)
96° / 5.5

Temperature:  
3.8°C C
Dew Point:  
1.5°C C
QNH:  
Trend:  
1022.5 mb mb
+0.3mb/hr
BigField Strip. This image updates approximately every minute, it can have a two minute delay.  
 

Humidity:  
85 %
Sunrise:   07:53z
Sunset:   15:54z
Updated:  
  UTC
 
   More met info, trends, radar, history etc. available here   

LUTON Metar   EGGW 041550Z AUTO 07006KT 9999 NCD 03/M00 Q1023
 
  TAF   2016/12/04 12:15 TAF EGGW 041103Z 0412/0512 08005KT 9999 FEW030 PROB30 0420/0501 7000 BECMG 0501/0503 3000 BR BKN002 PROB40 0502/0509 0300 FZFG VV/// PROB30 0509/0512 0300 FG VV///
 
BENSON Metar   EGUB 041550Z 07009KT CAVOK 05/M01 Q1022 BLU NOSIG
 
  TAF   2016/12/04 15:03 TAF EGUB 041333Z 0415/0418 06006KT CAVOK
 
Big Field view 1 icon   Big Field view 2 icon   Big Field view 3 icon   Chart AL3a in PDF icon   Chart AL3a in Word icon

WARNING:
This information is provided by the Airstrip unofficial weather station, DO NOT depend on the data provided here for any purpose.
This page is updated for latest Metars & TAF's every 5 minutes. Refresh the browser to check for the lastest.
Page designed for a minimum browser size of 1024x768.
© Copyright 2016 BigField Strip. This page auto generated 16:11 UTC - 04/12/2016   Contact Us
Valid HTML 4.01 Transitional     Windows uptime: 2 Days 19 Hours 56 Minutes 15 Seconds    WD started: 20:21 01/12/16    Free memory: 1498MB     Valid CSS!